Time;durP1;ratioP1;P1;durP2;ratioP2;P2;SDS_P1;SDS_P2;PMS_P1;PMS_P2;Temp;Humidity;BMP_temperature;BMP_pressure;BME280_temperature;BME280_humidity;BME280_pressure;Samples;Min_cycle;Max_cycle;Signal;HPM_P1;HPM_P2
2024/03/24 00:01:44;;;;;;;7.30;4.30;;;;;;;4.84;69.16;96208.48;107887;1241;99244;-80
2024/03/24 00:04:10;;;;;;;7.50;3.50;;;;;;;4.81;68.90;96201.05;107330;1241;100664;-78
2024/03/24 00:06:58;;;;;;;7.90;4.00;;;;;;;4.77;68.57;96197.71;107765;1238;99728;-77
2024/03/24 00:09:25;;;;;;;5.70;3.70;;;;;;;4.76;68.45;96190.91;107775;1238;99292;-78
2024/03/24 00:11:54;;;;;;;5.90;3.50;;;;;;;4.73;68.54;96184.54;107855;1238;99264;-76
2024/03/24 00:14:20;;;;;;;6.30;3.40;;;;;;;4.66;68.57;96175.12;107774;1248;103732;-76
2024/03/24 00:16:47;;;;;;;6.00;3.60;;;;;;;4.62;68.58;96171.86;107729;1250;99199;-76
2024/03/24 01:18:22;;;;;;;8.80;4.10;;;;;;;3.91;70.47;96064.08;107806;1239;99223;-81
2024/03/24 01:21:10;;;;;;;5.50;3.20;;;;;;;3.82;70.42;96074.17;107801;1246;104058;-80
2024/03/24 01:23:37;;;;;;;9.00;4.50;;;;;;;3.72;70.68;96081.54;107800;1240;101260;-81
2024/03/24 01:26:06;;;;;;;10.60;4.50;;;;;;;3.65;70.82;96077.15;107807;1246;99238;-84
2024/03/24 01:28:33;;;;;;;10.10;4.90;;;;;;;3.59;70.85;96071.64;107816;1238;99289;-81
2024/03/24 01:30:59;;;;;;;12.00;5.30;;;;;;;3.51;70.95;96073.00;107894;1239;99360;-80
2024/03/24 01:34:06;;;;;;;14.60;5.90;;;;;;;3.44;70.93;96092.30;107868;1238;99743;-80
2024/03/24 01:36:33;;;;;;;13.50;5.40;;;;;;;3.35;71.33;96090.91;107853;1247;101432;-78
2024/03/24 01:39:41;;;;;;;14.50;6.20;;;;;;;3.26;71.50;96078.11;107788;1248;99715;-76
2024/03/24 01:42:28;;;;;;;15.80;6.30;;;;;;;3.18;71.74;96067.81;107369;1247;99355;-77
2024/03/24 01:45:13;;;;;;;12.90;5.50;;;;;;;3.10;71.87;96065.10;107854;1237;99735;-76
2024/03/24 01:47:40;;;;;;;11.20;5.30;;;;;;;3.07;72.22;96066.56;107818;1237;103855;-80
2024/03/24 01:50:06;;;;;;;9.00;4.60;;;;;;;3.04;72.27;96060.72;107658;1247;99252;-81
2024/03/24 01:53:03;;;;;;;8.80;5.00;;;;;;;3.01;72.42;96057.94;107832;1237;100513;-77
2024/03/24 01:55:30;;;;;;;10.10;4.90;;;;;;;2.99;72.54;96062.07;107676;1247;99302;-82
2024/03/24 01:57:58;;;;;;;10.90;6.30;;;;;;;2.94;72.56;96075.39;107836;1248;99369;-81
2024/03/24 02:00:28;;;;;;;14.70;7.20;;;;;;;2.86;72.61;96083.06;107875;1248;103381;-81
2024/03/24 02:02:54;;;;;;;17.70;9.30;;;;;;;2.85;72.80;96086.95;107778;1248;100486;-77
2024/03/24 02:05:28;;;;;;;17.50;9.90;;;;;;;2.86;72.88;96090.36;107794;1238;99253;-79
2024/03/24 02:07:57;;;;;;;17.80;10.10;;;;;;;2.86;73.05;96101.77;107888;1245;99199;-77
2024/03/24 02:10:47;;;;;;;20.60;10.20;;;;;;;2.85;73.10;96114.21;107802;1245;99321;-77
2024/03/24 02:13:13;;;;;;;17.10;9.40;;;;;;;2.80;73.34;96117.41;105621;1237;2803100;-82
2024/03/24 02:15:49;;;;;;;18.00;9.80;;;;;;;2.79;73.46;96108.83;107796;1238;99283;-81
2024/03/24 02:18:15;;;;;;;16.20;8.40;;;;;;;2.82;73.69;96101.43;107861;1237;99274;-83
2024/03/24 02:21:22;;;;;;;15.70;9.00;;;;;;;2.83;73.65;96098.45;107842;1234;99208;-81
2024/03/24 02:23:52;;;;;;;14.20;8.00;;;;;;;2.82;73.70;96103.27;107875;1238;104857;-81
2024/03/24 02:26:21;;;;;;;13.30;7.70;;;;;;;2.81;73.79;96100.84;107911;1248;100886;-82
2024/03/24 02:28:47;;;;;;;12.60;6.40;;;;;;;2.79;73.89;96096.11;107815;1234;99285;-82
2024/03/24 02:31:41;;;;;;;11.90;6.70;;;;;;;2.79;74.03;96096.23;107893;1237;99365;-79
2024/03/24 02:34:08;;;;;;;12.70;6.80;;;;;;;2.81;74.22;96102.61;107834;1242;99777;-81
2024/03/24 02:36:34;;;;;;;11.10;6.30;;;;;;;2.82;74.16;96094.95;107804;1247;100514;-82
2024/03/24 02:39:05;;;;;;;12.40;6.90;;;;;;;2.82;74.19;96094.09;107828;1234;99256;-81
2024/03/24 02:41:37;;;;;;;10.30;6.10;;;;;;;2.83;74.28;96091.71;107840;1244;99241;-82
2024/03/24 02:44:11;;;;;;;12.00;6.70;;;;;;;2.83;74.34;96087.23;107835;1235;99284;-83
2024/03/24 02:46:38;;;;;;;11.60;6.20;;;;;;;2.81;74.40;96079.78;107811;1246;99753;-80
2024/03/24 02:49:09;;;;;;;13.60;7.00;;;;;;;2.80;74.53;96072.55;107883;1248;99758;-80
2024/03/24 02:51:36;;;;;;;12.70;7.00;;;;;;;2.79;74.64;96069.23;107882;1247;100863;-80
2024/03/24 02:54:03;;;;;;;12.10;6.70;;;;;;;2.78;74.60;96076.84;107830;1238;99291;-81
2024/03/24 02:56:30;;;;;;;14.60;7.20;;;;;;;2.73;74.55;96080.18;107904;1240;99277;-81
2024/03/24 02:59:37;;;;;;;17.60;8.00;;;;;;;2.63;74.51;96085.77;107874;1247;99247;-80
2024/03/24 03:02:04;;;;;;;19.10;10.30;;;;;;;2.52;74.70;96091.55;107841;1235;103810;-80
2024/03/24 03:04:30;;;;;;;18.00;9.70;;;;;;;2.49;74.70;96083.17;107859;1245;99242;-80
2024/03/24 03:06:57;;;;;;;13.00;8.10;;;;;;;2.48;74.64;96067.88;107818;1237;99802;-77
2024/03/24 03:09:26;;;;;;;11.70;8.10;;;;;;;2.47;74.67;96071.19;107881;1234;99263;-77
2024/03/24 03:11:53;;;;;;;16.30;8.50;;;;;;;2.43;74.61;96084.10;107920;1238;103825;-78
2024/03/24 03:14:20;;;;;;;11.10;7.60;;;;;;;2.31;74.62;96085.61;107871;1240;99367;-79
2024/03/24 03:16:47;;;;;;;12.70;6.70;;;;;;;2.25;74.83;96080.39;107801;1245;99772;-78
2024/03/24 03:19:13;;;;;;;15.40;8.20;;;;;;;2.26;74.94;96066.84;107833;1246;99165;-80
2024/03/24 03:21:40;;;;;;;14.10;8.00;;;;;;;2.26;75.08;96053.81;107887;1248;99309;-80
2024/03/24 03:24:07;;;;;;;19.50;8.70;;;;;;;2.22;75.14;96065.33;107900;1247;99264;-78
2024/03/24 03:26:33;;;;;;;15.20;8.50;;;;;;;2.19;75.30;96063.08;107885;1248;99959;-79
2024/03/24 03:29:00;;;;;;;15.70;10.20;;;;;;;2.18;75.45;96057.21;107874;1248;99259;-78
2024/03/24 03:31:26;;;;;;;19.50;10.30;;;;;;;2.19;75.66;96061.64;107886;1242;99274;-80
2024/03/24 03:33:53;;;;;;;15.80;9.00;;;;;;;2.16;75.95;96072.81;107926;1243;99831;-81
2024/03/24 03:36:22;;;;;;;14.60;7.20;;;;;;;2.14;76.05;96069.02;107850;1238;99248;-80
2024/03/24 03:38:48;;;;;;;14.30;6.50;;;;;;;2.15;76.05;96061.83;107853;1245;99339;-81
2024/03/24 03:41:18;;;;;;;13.80;6.80;;;;;;;2.16;76.11;96063.41;107857;1244;99325;-80
2024/03/24 03:43:44;;;;;;;12.90;6.40;;;;;;;2.20;76.12;96066.41;107872;1247;104705;-80
2024/03/24 03:46:11;;;;;;;11.80;6.40;;;;;;;2.24;76.23;96063.70;107770;1246;99343;-78
2024/03/24 03:48:42;;;;;;;10.10;6.60;;;;;;;2.24;76.18;96058.47;107875;1245;99384;-80
2024/03/24 03:51:17;;;;;;;9.90;6.60;;;;;;;2.28;76.17;96056.49;107857;1238;99253;-78
2024/03/24 03:53:44;;;;;;;9.10;6.40;;;;;;;2.29;76.29;96057.39;107848;1238;99833;-79
2024/03/24 03:56:11;;;;;;;11.20;6.70;;;;;;;2.24;76.22;96064.07;107871;1247;99239;-78
2024/03/24 03:58:37;;;;;;;10.10;6.50;;;;;;;2.22;76.23;96078.63;107859;1247;99701;-78
2024/03/24 04:01:04;;;;;;;16.00;7.00;;;;;;;2.23;76.38;96076.23;107840;1248;99283;-77
2024/03/24 04:03:35;;;;;;;11.20;6.80;;;;;;;2.23;76.40;96078.48;107887;1246;99267;-76
2024/03/24 04:06:05;;;;;;;14.50;7.20;;;;;;;2.25;76.57;96078.66;107894;1237;105182;-76
2024/03/24 04:08:31;;;;;;;12.00;7.30;;;;;;;2.29;76.63;96063.09;107834;1237;100991;-79
2024/03/24 04:10:58;;;;;;;15.80;8.20;;;;;;;2.33;76.70;96041.56;107718;1237;99338;-78
2024/03/24 04:13:24;;;;;;;15.80;8.90;;;;;;;2.35;76.60;96029.02;107841;1240;99382;-79
2024/03/24 04:15:51;;;;;;;18.00;9.50;;;;;;;2.36;76.70;96023.77;107966;1235;99259;-82
2024/03/24 04:18:17;;;;;;;22.80;10.60;;;;;;;2.36;76.85;96025.33;107877;1241;101223;-81
2024/03/24 04:20:44;;;;;;;19.70;10.50;;;;;;;2.32;76.79;96026.80;107785;1240;99297;-80
2024/03/24 04:23:10;;;;;;;19.10;10.10;;;;;;;2.29;76.81;96039.59;107851;1248;99293;-83
2024/03/24 04:25:37;;;;;;;22.00;8.90;;;;;;;2.28;76.84;96049.33;107971;1244;99895;-78
2024/03/24 04:28:04;;;;;;;19.60;9.80;;;;;;;2.25;76.91;96060.39;107790;1238;100887;-81
2024/03/24 04:30:32;;;;;;;16.90;9.20;;;;;;;2.23;77.07;96063.48;107767;1244;99298;-80
2024/03/24 04:33:00;;;;;;;20.30;9.40;;;;;;;2.24;77.19;96072.18;107877;1238;99715;-80
2024/03/24 04:35:26;;;;;;;18.20;8.70;;;;;;;2.27;77.25;96070.21;107867;1240;99169;-80
2024/03/24 04:37:53;;;;;;;13.90;8.40;;;;;;;2.30;77.28;96082.92;107965;1235;99371;-81
2024/03/24 04:40:19;;;;;;;15.70;8.60;;;;;;;2.32;77.27;96084.25;107891;1244;99372;-82
2024/03/24 04:42:46;;;;;;;15.20;8.60;;;;;;;2.33;77.18;96082.45;107920;1244;99243;-82
2024/03/24 04:45:13;;;;;;;14.70;9.10;;;;;;;2.32;77.20;96083.38;107895;1238;99731;-81
2024/03/24 04:47:48;;;;;;;14.40;9.00;;;;;;;2.31;77.18;96084.52;107895;1237;99249;-80
2024/03/24 04:50:15;;;;;;;11.60;8.80;;;;;;;2.30;77.21;96087.50;107908;1247;101231;-80
2024/03/24 04:52:41;;;;;;;13.50;8.10;;;;;;;2.30;77.23;96081.20;107873;1240;99253;-81
2024/03/24 04:55:08;;;;;;;16.90;8.50;;;;;;;2.30;77.27;96073.74;107874;1246;99250;-81
2024/03/24 04:57:34;;;;;;;12.60;8.40;;;;;;;2.30;77.37;96069.48;107942;1235;99314;-82
2024/03/24 05:00:01;;;;;;;10.90;7.50;;;;;;;2.30;77.46;96072.35;107848;1247;100291;-81
2024/03/24 05:02:28;;;;;;;14.30;8.70;;;;;;;2.30;77.62;96073.33;107806;1244;99248;-81
2024/03/24 05:04:54;;;;;;;10.70;7.20;;;;;;;2.31;77.65;96073.17;107864;1247;100616;-80
2024/03/24 05:07:21;;;;;;;11.50;7.70;;;;;;;2.31;77.65;96070.59;107912;1241;99309;-80
2024/03/24 05:09:47;;;;;;;16.70;9.20;;;;;;;2.32;77.71;96071.46;107899;1247;101240;-78
2024/03/24 05:12:13;;;;;;;15.80;11.00;;;;;;;2.34;77.84;96075.09;107869;1247;99361;-79
2024/03/24 05:14:40;;;;;;;16.70;9.70;;;;;;;2.37;77.83;96072.54;107851;1239;99346;-79
2024/03/24 05:17:25;;;;;;;16.10;10.90;;;;;;;2.40;77.85;96073.75;107918;1248;99363;-77
2024/03/24 05:19:52;;;;;;;29.40;17.50;;;;;;;2.42;77.90;96078.42;107832;1238;99955;-79
2024/03/24 05:22:18;;;;;;;26.60;18.00;;;;;;;2.43;77.99;96077.77;107880;1237;99300;-78
2024/03/24 05:24:57;;;;;;;21.90;14.20;;;;;;;2.45;78.04;96067.27;107869;1241;99234;-82
2024/03/24 05:27:23;;;;;;;16.80;12.40;;;;;;;2.48;78.13;96068.04;107915;1238;99715;-82
2024/03/24 05:29:50;;;;;;;18.60;13.50;;;;;;;2.51;78.19;96064.46;107869;1248;99223;-81
2024/03/24 05:32:16;;;;;;;13.40;10.10;;;;;;;2.56;78.21;96065.34;107817;1244;99327;-78
2024/03/24 05:34:43;;;;;;;13.80;9.20;;;;;;;2.60;78.31;96062.30;107943;1236;99266;-78
2024/03/24 05:37:10;;;;;;;14.60;10.80;;;;;;;2.64;78.28;96053.80;107910;1237;99806;-76
2024/03/24 05:39:36;;;;;;;13.70;10.10;;;;;;;2.70;78.30;96051.50;107898;1235;99739;-77
2024/03/24 05:42:23;;;;;;;15.20;10.20;;;;;;;2.73;78.36;96047.84;107848;1244;99698;-77
2024/03/24 05:44:51;;;;;;;23.70;14.80;;;;;;;2.74;78.40;96046.27;107829;1248;100020;-77
2024/03/24 05:47:17;;;;;;;22.70;13.80;;;;;;;2.76;78.28;96044.66;107849;1237;99278;-81
2024/03/24 05:49:47;;;;;;;21.20;13.50;;;;;;;2.76;78.34;96044.41;107858;1239;99272;-81
2024/03/24 05:52:13;;;;;;;15.70;12.10;;;;;;;2.79;78.34;96041.84;107916;1238;104819;-82
2024/03/24 05:54:42;;;;;;;20.40;10.70;;;;;;;2.81;78.28;96030.29;107873;1237;99332;-82
2024/03/24 05:57:09;;;;;;;15.10;10.30;;;;;;;2.81;78.30;96022.21;107836;1240;99260;-80
2024/03/24 05:59:38;;;;;;;17.50;12.30;;;;;;;2.82;78.21;96010.25;107884;1248;99361;-80
2024/03/24 06:02:04;;;;;;;16.90;12.70;;;;;;;2.82;78.13;96006.81;107862;1240;99257;-78
2024/03/24 06:04:37;;;;;;;20.30;14.80;;;;;;;2.85;78.23;96007.04;107902;1238;99756;-77
2024/03/24 06:07:07;;;;;;;17.90;13.60;;;;;;;2.88;78.23;96017.75;107845;1244;100914;-76
2024/03/24 06:09:36;;;;;;;18.20;13.50;;;;;;;2.92;78.40;96021.58;107871;1238;99914;-77
2024/03/24 06:12:06;;;;;;;23.30;16.00;;;;;;;2.94;78.32;96023.40;107845;1237;99243;-77
2024/03/24 06:14:33;;;;;;;14.50;12.00;;;;;;;2.97;78.30;96020.79;107882;1245;99170;-77
2024/03/24 06:16:59;;;;;;;16.70;10.40;;;;;;;3.02;78.09;96020.85;107886;1248;99166;-77
2024/03/24 06:19:56;;;;;;;15.20;11.30;;;;;;;3.07;78.06;96026.25;107807;1238;99205;-78
2024/03/24 06:22:22;;;;;;;15.50;10.10;;;;;;;3.13;78.03;96029.27;107723;1235;100402;-77
2024/03/24 06:24:51;;;;;;;12.80;10.20;;;;;;;3.19;77.88;96032.05;107775;1244;99266;-78
2024/03/24 06:27:21;;;;;;;19.40;11.00;;;;;;;3.25;77.65;96033.05;107861;1238;99766;-78
2024/03/24 06:29:47;;;;;;;17.10;11.60;;;;;;;3.32;77.52;96029.31;107853;1246;104769;-82
2024/03/24 06:32:47;;;;;;;15.80;10.50;;;;;;;3.42;77.84;96031.80;107889;1243;99256;-79
2024/03/24 06:35:14;;;;;;;15.30;11.40;;;;;;;3.52;77.88;96037.90;107249;1251;99792;-81
2024/03/24 06:38:03;;;;;;;13.80;10.00;;;;;;;3.64;77.57;96032.73;107262;1251;99273;-81
2024/03/24 06:40:30;;;;;;;14.70;10.40;;;;;;;3.76;77.22;96030.38;107305;1246;99796;-77
2024/03/24 06:42:59;;;;;;;15.20;10.40;;;;;;;3.91;77.38;96030.37;107292;1244;99410;-81
2024/03/24 06:45:35;;;;;;;12.90;10.80;;;;;;;4.07;77.58;96034.70;107349;1244;101236;-79
2024/03/24 06:48:03;;;;;;;15.90;9.90;;;;;;;4.22;77.41;96036.39;107329;1254;99774;-78
2024/03/24 06:50:33;;;;;;;16.10;11.40;;;;;;;4.37;76.84;96037.01;107312;1245;99405;-78
2024/03/24 06:53:00;;;;;;;14.00;9.90;;;;;;;4.53;76.49;96037.01;107295;1242;100568;-79
2024/03/24 06:55:28;;;;;;;14.70;10.30;;;;;;;4.66;76.44;96037.33;107299;1245;99431;-79
2024/03/24 06:57:55;;;;;;;14.80;9.50;;;;;;;4.81;76.60;96038.16;107292;1248;101227;-78
2024/03/24 07:00:41;;;;;;;12.20;9.50;;;;;;;5.01;76.63;96039.89;107299;1251;99374;-79
2024/03/24 07:03:29;;;;;;;18.20;9.40;;;;;;;5.20;76.15;96035.14;107287;1240;99315;-81
2024/03/24 07:05:58;;;;;;;13.50;8.90;;;;;;;5.34;75.38;96030.84;107504;1244;100352;-81
2024/03/24 07:08:27;;;;;;;10.40;8.40;;;;;;;5.43;74.83;96028.01;107876;1238;104792;-81
2024/03/24 07:10:54;;;;;;;12.30;8.00;;;;;;;5.49;74.78;96029.02;107886;1242;101187;-81
2024/03/24 07:13:51;;;;;;;11.40;7.60;;;;;;;5.54;74.66;96031.92;107863;1246;99234;-82
2024/03/24 07:16:19;;;;;;;9.90;7.10;;;;;;;5.61;74.17;96032.95;107780;1237;100473;-80
2024/03/24 07:19:26;;;;;;;9.80;5.90;;;;;;;5.70;73.99;96034.27;107800;1238;99709;-79
2024/03/24 07:21:55;;;;;;;10.90;6.30;;;;;;;5.78;73.19;96030.88;107831;1244;104448;-83
2024/03/24 07:25:01;;;;;;;9.70;5.80;;;;;;;5.88;72.67;96032.67;107846;1244;100082;-83
2024/03/24 07:28:09;;;;;;;9.00;6.00;;;;;;;5.97;72.12;96033.27;107837;1245;100490;-83
2024/03/24 07:30:41;;;;;;;8.90;6.10;;;;;;;6.02;71.73;96037.38;107852;1238;99971;-78
2024/03/24 07:33:17;;;;;;;9.20;6.40;;;;;;;6.05;71.29;96036.34;107846;1235;99252;-78
2024/03/24 07:36:13;;;;;;;10.70;6.20;;;;;;;6.11;71.22;96035.53;107847;1247;103829;-82
2024/03/24 07:39:12;;;;;;;10.60;6.10;;;;;;;6.21;70.88;96032.54;107889;1248;100341;-81
2024/03/24 07:42:01;;;;;;;9.30;5.60;;;;;;;6.24;70.28;96034.66;107871;1244;99775;-78
2024/03/24 07:44:42;;;;;;;7.70;5.10;;;;;;;6.27;70.00;96034.98;107875;1239;99226;-78
2024/03/24 07:47:29;;;;;;;11.80;5.50;;;;;;;6.30;70.08;96036.95;107851;1238;99731;-82
2024/03/24 07:49:58;;;;;;;15.30;6.00;;;;;;;6.34;69.41;96035.20;107860;1238;104057;-82
2024/03/24 07:52:25;;;;;;;7.10;5.50;;;;;;;6.34;68.95;96035.40;107858;1237;108294;-83
2024/03/24 07:54:51;;;;;;;8.70;5.50;;;;;;;6.33;68.81;96040.48;107787;1248;99267;-82
2024/03/24 07:57:58;;;;;;;7.90;5.00;;;;;;;6.28;68.06;96040.11;107894;1248;99721;-80
2024/03/24 08:00:27;;;;;;;6.90;4.40;;;;;;;6.21;67.42;96041.10;107838;1247;100368;-81
2024/03/24 08:03:24;;;;;;;6.20;4.80;;;;;;;6.18;67.68;96041.84;107858;1238;103788;-80
2024/03/24 08:05:54;;;;;;;7.80;5.60;;;;;;;6.12;67.79;96048.05;107839;1238;101301;-82
2024/03/24 08:09:01;;;;;;;11.80;5.40;;;;;;;6.08;68.34;96045.85;107863;1239;99776;-81
2024/03/24 08:11:49;;;;;;;6.90;4.40;;;;;;;6.06;68.28;96051.26;107847;1245;99362;-80
2024/03/24 08:14:36;;;;;;;7.30;5.00;;;;;;;6.01;68.26;96052.66;107812;1244;99065;-80
2024/03/24 08:17:10;;;;;;;7.30;5.10;;;;;;;6.01;68.47;96052.75;107787;1245;104517;-78
2024/03/24 08:19:44;;;;;;;10.20;5.00;;;;;;;6.01;68.38;96056.46;107865;1238;99869;-83
2024/03/24 08:22:51;;;;;;;5.70;4.60;;;;;;;5.99;68.27;96052.67;107886;1247;99622;-81
2024/03/24 08:25:20;;;;;;;9.20;4.60;;;;;;;5.98;68.07;96054.29;107877;1244;99535;-82
2024/03/24 08:27:47;;;;;;;8.00;5.40;;;;;;;5.98;68.41;96054.83;107921;1245;99161;-82
2024/03/24 08:30:19;;;;;;;6.20;5.10;;;;;;;5.97;68.63;96059.11;107878;1244;99247;-83
2024/03/24 08:32:49;;;;;;;8.30;5.70;;;;;;;6.05;68.66;96053.20;107843;1244;101354;-82
2024/03/24 08:35:15;;;;;;;7.80;5.70;;;;;;;6.14;68.72;96051.92;107858;1245;100248;-82
2024/03/24 08:37:43;;;;;;;9.30;5.80;;;;;;;6.28;68.84;96052.11;107871;1239;99228;-77
2024/03/24 08:40:50;;;;;;;8.10;6.10;;;;;;;6.64;69.08;96044.56;107921;1237;99279;-82
2024/03/24 08:43:57;;;;;;;11.70;5.70;;;;;;;6.85;68.78;96041.08;107866;1244;103745;-82
2024/03/24 08:47:04;;;;;;;8.10;5.50;;;;;;;6.88;67.72;96038.96;107905;1240;99890;-77
2024/03/24 08:49:53;;;;;;;7.00;4.60;;;;;;;6.77;66.94;96036.80;107828;1245;100507;-76
2024/03/24 08:52:32;;;;;;;7.40;4.50;;;;;;;6.82;67.56;96037.17;107703;1244;99245;-77
2024/03/24 08:55:19;;;;;;;8.40;4.90;;;;;;;7.22;67.48;96036.46;107886;1237;99848;-82
2024/03/24 08:57:52;;;;;;;7.40;4.70;;;;;;;7.62;67.06;96035.09;107874;1238;104627;-81
2024/03/24 09:00:21;;;;;;;7.60;4.70;;;;;;;7.90;67.39;96026.34;107894;1237;101614;-81
2024/03/24 09:03:28;;;;;;;6.20;4.30;;;;;;;8.42;67.50;96014.44;107908;1245;99743;-84
2024/03/24 09:06:16;;;;;;;5.80;4.40;;;;;;;8.76;65.12;96008.71;107901;1245;100369;-83
2024/03/24 10:11:11;;;;;;;5.00;3.90;;;;;;;8.53;61.97;95983.88;105840;1263;100685;-78
2024/03/24 10:14:24;;;;;;;4.80;3.20;;;;;;;8.34;61.83;96004.55;107129;1255;100259;-80
2024/03/24 10:17:31;;;;;;;4.30;3.40;;;;;;;7.93;61.18;96027.02;107870;1237;99944;-81
2024/03/24 10:20:37;;;;;;;4.10;3.40;;;;;;;7.12;61.90;96027.44;107980;1238;97096;-80
2024/03/24 10:23:34;;;;;;;3.50;3.10;;;;;;;6.47;62.74;96028.49;107970;1237;97057;-82
2024/03/24 10:26:41;;;;;;;4.10;3.50;;;;;;;5.99;63.65;96034.73;107921;1237;100866;-82
2024/03/24 10:29:51;;;;;;;5.70;3.60;;;;;;;5.61;64.46;96040.16;107956;1237;100557;-82
2024/03/24 10:32:58;;;;;;;6.20;3.80;;;;;;;5.29;65.11;96052.86;107933;1237;99831;-83
2024/03/24 10:35:30;;;;;;;6.50;4.40;;;;;;;5.07;65.72;96059.34;107821;1235;97093;-81
2024/03/24 10:38:23;;;;;;;4.60;4.10;;;;;;;4.93;66.17;96057.11;107809;1248;96532;-81
2024/03/24 10:41:30;;;;;;;5.80;4.60;;;;;;;4.64;66.74;96051.77;107739;1247;100577;-81
2024/03/24 10:44:37;;;;;;;6.10;5.20;;;;;;;4.25;67.71;96047.98;107780;1237;99931;-78
2024/03/24 10:47:44;;;;;;;7.90;6.40;;;;;;;4.04;68.76;96046.92;107735;1238;98702;-82
2024/03/24 10:50:45;;;;;;;12.70;8.10;;;;;;;4.05;69.48;96049.77;107707;1235;96655;-82
2024/03/24 10:53:52;;;;;;;13.90;8.10;;;;;;;4.22;69.59;96048.39;107803;1236;96496;-81
2024/03/24 10:56:40;;;;;;;11.10;7.40;;;;;;;4.41;69.68;96050.08;107721;1238;101026;-82
2024/03/24 10:59:47;;;;;;;11.10;8.10;;;;;;;4.50;69.46;96054.19;107973;1246;100252;-81
2024/03/24 11:02:54;;;;;;;9.60;7.30;;;;;;;4.40;69.49;96048.15;107994;1245;98449;-81
2024/03/24 11:06:01;;;;;;;11.50;7.30;;;;;;;4.31;69.91;96049.43;108020;1247;97717;-77
2024/03/24 11:09:08;;;;;;;7.70;6.20;;;;;;;4.35;69.95;96052.30;107976;1238;97057;-79
2024/03/24 11:11:57;;;;;;;9.20;6.90;;;;;;;4.39;70.19;96047.61;107964;1247;101674;-77
2024/03/24 11:14:26;;;;;;;7.10;6.30;;;;;;;4.45;70.29;96049.79;108049;1236;99851;-79
2024/03/24 11:17:29;;;;;;;8.30;6.90;;;;;;;4.46;70.36;96041.86;107992;1246;99875;-77
2024/03/24 11:20:36;;;;;;;9.70;7.40;;;;;;;4.42;70.75;96047.86;107900;1238;97785;-78
2024/03/24 11:23:33;;;;;;;9.60;8.60;;;;;;;4.49;71.17;96047.95;107958;1237;97053;-80
2024/03/24 11:26:40;;;;;;;10.70;8.90;;;;;;;4.64;71.20;96043.83;107877;1243;102395;-80
2024/03/24 11:30:05;;;;;;;13.30;9.70;;;;;;;4.65;71.24;96042.95;107934;1238;100370;-82
2024/03/24 11:33:11;;;;;;;11.50;8.30;;;;;;;4.64;71.65;96042.05;107072;1255;100128;-81
2024/03/24 11:36:18;;;;;;;11.00;8.40;;;;;;;4.59;71.55;96039.39;106508;1252;97876;-81
2024/03/24 11:39:28;;;;;;;8.90;8.00;;;;;;;4.51;71.60;96036.88;106514;1260;98526;-79
2024/03/24 11:42:24;;;;;;;8.60;7.60;;;;;;;4.50;71.80;96033.67;106276;1260;102286;-79
2024/03/24 11:45:45;;;;;;;8.90;7.90;;;;;;;4.59;72.02;96027.75;107746;1251;100293;-78
2024/03/24 11:48:58;;;;;;;10.20;8.60;;;;;;;4.75;72.28;96024.59;108969;1257;98881;-75
2024/03/24 11:51:47;;;;;;;9.60;8.20;;;;;;;4.80;71.99;96022.30;105211;1266;97842;-78
2024/03/24 11:54:55;;;;;;;9.30;7.40;;;;;;;4.77;71.57;96024.39;105234;1266;97242;-79
2024/03/24 11:57:34;;;;;;;12.50;8.40;;;;;;;4.66;72.00;96013.30;105195;1266;101274;-79
2024/03/24 12:00:41;;;;;;;9.30;7.30;;;;;;;4.88;72.97;96005.15;105146;1266;100049;-82
2024/03/24 12:03:46;;;;;;;14.20;11.80;;;;;;;5.56;73.58;95995.16;105345;1262;99881;-82
2024/03/24 12:06:43;;;;;;;12.30;8.70;;;;;;;6.31;73.90;95984.66;105850;1260;96883;-83
2024/03/24 12:09:33;;;;;;;17.30;10.00;;;;;;;7.01;73.09;95980.44;105899;1257;97220;-82
2024/03/24 12:12:44;;;;;;;6.80;5.30;;;;;;;7.45;70.97;95973.66;105949;1258;100985;-82
2024/03/24 12:15:51;;;;;;;8.70;6.80;;;;;;;7.62;69.51;95973.77;106504;1258;101613;-81
2024/03/24 12:18:37;;;;;;;6.00;5.30;;;;;;;7.61;69.40;95978.65;106539;1261;98446;-78
2024/03/24 12:21:44;;;;;;;7.20;5.70;;;;;;;7.42;68.36;95986.14;106528;1251;97001;-80
2024/03/24 12:24:51;;;;;;;9.10;6.30;;;;;;;7.20;68.70;95987.73;106820;1251;97593;-80
2024/03/24 12:27:58;;;;;;;9.20;6.30;;;;;;;7.10;69.10;95989.05;107172;1246;101459;-80
2024/03/24 12:31:08;;;;;;;8.00;6.10;;;;;;;7.02;68.75;95988.64;107836;1242;100330;-78
2024/03/24 12:34:15;;;;;;;9.40;5.90;;;;;;;7.01;69.06;95985.96;107042;1251;98866;-77
2024/03/24 12:37:22;;;;;;;7.50;4.90;;;;;;;6.86;68.47;95983.44;107022;1248;97543;-80
2024/03/24 12:40:21;;;;;;;6.30;5.10;;;;;;;6.59;68.19;95984.38;107063;1246;97046;-80
2024/03/24 12:43:13;;;;;;;6.60;4.40;;;;;;;6.61;68.84;95983.91;107085;1255;101329;-79
2024/03/24 12:46:31;;;;;;;9.40;4.40;;;;;;;6.74;68.90;95982.53;106920;1257;101636;-85
2024/03/24 12:49:38;;;;;;;5.80;4.50;;;;;;;6.81;68.90;95971.86;107112;1254;98840;-82
2024/03/24 12:52:46;;;;;;;5.60;3.90;;;;;;;7.02;69.19;95961.16;107066;1247;97115;-80
2024/03/24 12:55:52;;;;;;;15.20;8.80;;;;;;;7.18;68.30;95959.77;107091;1247;97474;-80
2024/03/24 12:59:03;;;;;;;8.10;5.80;;;;;;;7.52;69.03;95954.77;106756;1250;101517;-78
2024/03/24 13:02:10;;;;;;;13.50;8.00;;;;;;;8.36;69.34;95947.80;107022;1250;100249;-78
2024/03/24 13:04:59;;;;;;;12.70;7.40;;;;;;;9.12;68.26;95944.19;107066;1257;99950;-79
2024/03/24 13:08:06;;;;;;;8.60;6.20;;;;;;;9.34;66.67;95941.09;107115;1249;96734;-78
2024/03/24 13:11:13;;;;;;;8.40;5.10;;;;;;;9.49;65.88;95933.38;107228;1247;96734;-79
2024/03/24 13:14:11;;;;;;;3.50;3.10;;;;;;;9.46;65.32;95932.59;107868;1237;101177;-78
2024/03/24 13:17:33;;;;;;;8.40;3.70;;;;;;;9.30;64.16;95939.02;107766;1247;101197;-82
2024/03/24 13:20:40;;;;;;;5.60;3.40;;;;;;;9.12;64.31;95939.93;106388;1254;99771;-78
2024/03/24 13:23:47;;;;;;;4.30;3.30;;;;;;;8.87;63.68;95936.68;106413;1258;97357;-79
2024/03/24 13:26:56;;;;;;;4.40;3.40;;;;;;;8.61;63.39;95937.80;106455;1261;98421;-80
2024/03/24 13:29:36;;;;;;;6.40;4.10;;;;;;;8.39;63.67;95934.00;106534;1261;102064;-78
2024/03/24 13:32:43;;;;;;;10.20;6.60;;;;;;;8.54;64.54;95926.05;106460;1255;109298;-81
2024/03/24 13:35:50;;;;;;;7.90;6.20;;;;;;;9.01;64.29;95924.05;106406;1253;99829;-78
2024/03/24 13:38:58;;;;;;;8.50;5.20;;;;;;;9.43;64.01;95919.77;106424;1254;97168;-80
2024/03/24 13:42:04;;;;;;;9.40;5.10;;;;;;;9.81;62.76;95918.51;105301;1270;97155;-79
2024/03/24 13:45:21;;;;;;;8.40;5.20;;;;;;;9.78;61.93;95914.35;104773;1270;102150;-78
2024/03/24 15:09:24;;;;;;;8.50;5.80;;;;;;;8.27;62.33;95870.61;105392;1269;96629;-80
2024/03/24 15:11:51;;;;;;;8.60;6.80;;;;;;;8.25;62.48;95870.02;106555;1251;97906;-79
2024/03/24 15:14:37;;;;;;;7.90;5.90;;;;;;;8.18;62.18;95868.08;106565;1247;97787;-79
2024/03/24 15:17:06;;;;;;;8.30;5.20;;;;;;;8.09;61.95;95866.84;106865;1245;96844;-84
2024/03/24 15:20:14;;;;;;;6.70;4.80;;;;;;;7.99;62.00;95873.11;106878;1245;100821;-84
2024/03/24 15:23:04;;;;;;;8.00;4.90;;;;;;;7.88;62.14;95870.74;106828;1247;101400;-84
2024/03/24 15:25:30;;;;;;;11.20;6.50;;;;;;;7.74;62.26;95874.27;107312;1239;98640;-84
2024/03/24 15:28:37;;;;;;;9.90;6.70;;;;;;;7.64;62.56;95875.83;107333;1241;97825;-82
2024/03/24 15:31:07;;;;;;;10.30;6.30;;;;;;;7.60;62.68;95868.87;107394;1239;97061;-82
2024/03/24 15:34:02;;;;;;;10.90;6.60;;;;;;;7.58;62.86;95867.37;107051;1245;101409;-83
2024/03/24 15:36:36;;;;;;;14.20;8.50;;;;;;;7.65;63.11;95868.92;107354;1239;100708;-80
2024/03/24 15:39:03;;;;;;;12.20;7.90;;;;;;;7.67;62.90;95867.48;107338;1245;100343;-81
2024/03/24 15:41:29;;;;;;;13.60;7.90;;;;;;;7.68;62.89;95865.61;107348;1251;97796;-81
2024/03/24 15:44:19;;;;;;;13.30;8.10;;;;;;;7.73;63.18;95864.30;107346;1244;97064;-81
2024/03/24 15:46:55;;;;;;;13.60;7.70;;;;;;;7.87;63.39;95857.02;107286;1252;101137;-84
2024/03/24 15:49:22;;;;;;;11.10;6.70;;;;;;;7.97;63.00;95854.88;107231;1241;100304;-83
2024/03/24 15:52:09;;;;;;;11.50;5.70;;;;;;;7.99;62.60;95853.05;107335;1245;97870;-78
2024/03/24 15:55:16;;;;;;;10.70;6.10;;;;;;;8.02;62.59;95847.90;107636;1240;96987;-78